createdAt,value
2018-06-11T00:01:22.506Z,1.30
2018-06-11T00:03:51.001Z,1.60
2018-06-11T00:06:19.671Z,1.40
2018-06-11T00:08:48.238Z,1.67
2018-06-11T00:11:17.366Z,1.53
2018-06-11T00:13:45.983Z,1.80
2018-06-11T00:16:15.995Z,1.50
2018-06-11T00:18:44.502Z,1.57
2018-06-11T00:21:13.118Z,1.80
2018-06-11T00:23:41.748Z,1.70
2018-06-11T00:26:11.151Z,1.70
2018-06-11T00:28:39.836Z,1.63
2018-06-11T00:31:08.482Z,2.40
2018-06-11T00:33:37.034Z,2.10
2018-06-11T00:36:05.583Z,2.00
2018-06-11T00:38:34.114Z,2.50
2018-06-11T00:41:02.750Z,2.23
2018-06-11T00:43:31.332Z,2.80
2018-06-11T00:45:59.942Z,2.93
2018-06-11T00:48:28.713Z,2.60
2018-06-11T00:50:57.494Z,3.03
2018-06-11T00:53:26.061Z,3.00
2018-06-11T00:56:07.867Z,3.10
2018-06-11T00:58:36.471Z,2.90
2018-06-11T01:01:05.454Z,3.20
2018-06-11T01:03:34.133Z,3.60
2018-06-11T01:06:02.815Z,3.30
2018-06-11T01:08:31.395Z,3.23
2018-06-11T01:11:00.039Z,3.20
2018-06-11T01:13:28.665Z,3.40
2018-06-11T01:15:58.066Z,2.93
2018-06-11T01:18:26.854Z,3.00
2018-06-11T01:20:55.948Z,2.77
2018-06-11T01:23:24.532Z,3.20
2018-06-11T01:25:53.039Z,3.10
2018-06-11T01:28:21.555Z,2.73
2018-06-11T01:30:50.149Z,2.90
2018-06-11T01:33:19.422Z,2.57
2018-06-11T01:35:48.060Z,2.60
2018-06-11T01:38:16.550Z,2.17
2018-06-11T01:40:45.175Z,1.87
2018-06-11T01:43:13.805Z,2.00
2018-06-11T01:45:42.393Z,2.70
2018-06-11T01:48:10.987Z,2.00
2018-06-11T01:50:39.586Z,1.70
2018-06-11T01:53:08.144Z,1.97
2018-06-11T01:55:36.829Z,1.70
2018-06-11T01:58:05.412Z,2.13
2018-06-11T02:00:34.002Z,1.70
2018-06-11T02:03:02.558Z,1.80
2018-06-11T02:05:31.322Z,2.10
2018-06-11T02:07:59.945Z,1.93
2018-06-11T02:10:28.633Z,2.00
2018-06-11T02:12:57.286Z,2.00
2018-06-11T02:15:26.820Z,1.97
2018-06-11T02:17:55.505Z,2.13
2018-06-11T02:20:24.040Z,2.20
2018-06-11T02:22:52.586Z,2.00
2018-06-11T02:25:21.256Z,2.00
2018-06-11T02:27:49.893Z,2.17
2018-06-11T02:30:19.243Z,1.80
2018-06-11T02:32:47.923Z,1.83
2018-06-11T02:35:16.485Z,2.73
2018-06-11T02:37:45.012Z,1.87
2018-06-11T02:40:13.626Z,1.60
2018-06-11T02:42:42.361Z,2.00
2018-06-11T02:45:11.043Z,1.70
2018-06-11T02:47:39.691Z,1.90
2018-06-11T02:50:08.229Z,2.10
2018-06-11T02:52:36.943Z,1.97
2018-06-11T02:55:05.798Z,1.80
2018-06-11T02:57:34.474Z,1.90
2018-06-11T03:00:04.192Z,2.17
2018-06-11T03:02:32.864Z,2.07
2018-06-11T03:05:01.970Z,2.23
2018-06-11T03:07:30.567Z,2.10
2018-06-11T03:10:13.806Z,2.00
2018-06-11T03:12:43.069Z,2.23
2018-06-11T03:15:12.307Z,2.30
2018-06-11T03:17:41.054Z,2.10
2018-06-11T03:20:09.666Z,2.70
2018-06-11T03:22:38.258Z,2.10
2018-06-11T03:25:07.171Z,2.03
2018-06-11T03:27:35.793Z,2.40
2018-06-11T03:30:04.931Z,2.10
2018-06-11T03:32:33.575Z,1.53
2018-06-11T03:35:02.198Z,1.57
2018-06-11T03:37:30.944Z,1.53
2018-06-11T03:39:59.514Z,1.20
2018-06-11T03:42:28.558Z,1.40
2018-06-11T03:44:57.352Z,1.13
2018-06-11T03:47:26.046Z,1.20
2018-06-11T03:49:55.530Z,1.27
2018-06-11T03:52:24.086Z,1.13
2018-06-11T03:54:52.852Z,1.20
2018-06-11T03:57:21.397Z,1.30
2018-06-11T03:59:50.033Z,1.37
2018-06-11T04:02:19.438Z,1.20
2018-06-11T04:04:48.099Z,1.30
2018-06-11T04:07:16.805Z,1.23
2018-06-11T04:09:45.402Z,1.30
2018-06-11T04:12:14.011Z,1.10
2018-06-11T04:14:42.529Z,1.50
2018-06-11T04:17:11.243Z,1.17
2018-06-11T04:19:39.772Z,1.47
2018-06-11T04:22:08.302Z,1.20
2018-06-11T04:24:36.988Z,1.70
2018-06-11T04:27:05.590Z,1.40
2018-06-11T04:29:34.256Z,1.20
2018-06-11T04:32:02.754Z,1.37
2018-06-11T04:34:31.422Z,1.30
2018-06-11T04:37:00.108Z,1.17
2018-06-11T04:39:28.696Z,1.10
2018-06-11T04:41:57.294Z,1.30
2018-06-11T04:44:25.922Z,1.70
2018-06-11T04:46:54.489Z,1.60
2018-06-11T04:49:23.020Z,1.70
2018-06-11T04:51:51.614Z,1.50
2018-06-11T04:54:20.189Z,1.60
2018-06-11T04:56:48.786Z,1.43
2018-06-11T04:59:17.374Z,1.73
2018-06-11T05:01:45.939Z,1.80
2018-06-11T05:04:14.592Z,1.60
2018-06-11T05:06:43.204Z,1.90
2018-06-11T05:09:11.827Z,1.50
2018-06-11T05:11:40.475Z,1.60
2018-06-11T05:14:09.054Z,2.03
2018-06-11T05:16:37.685Z,2.40
2018-06-11T05:19:06.194Z,1.87
2018-06-11T05:21:34.715Z,2.03
2018-06-11T05:24:03.387Z,1.87
2018-06-11T05:26:31.990Z,1.70
2018-06-11T05:29:00.655Z,2.00
2018-06-11T05:31:29.231Z,1.73
2018-06-11T05:33:57.737Z,1.83
2018-06-11T05:36:26.405Z,1.67
2018-06-11T05:38:54.986Z,1.80
2018-06-11T05:41:23.621Z,1.43
2018-06-11T05:43:52.254Z,1.70
2018-06-11T05:46:20.754Z,1.60
2018-06-11T05:48:49.383Z,1.80
2018-06-11T05:51:17.964Z,1.40
2018-06-11T05:53:46.585Z,1.77
2018-06-11T05:56:15.169Z,1.60
2018-06-11T05:58:43.803Z,1.67
2018-06-11T06:01:12.343Z,1.80
2018-06-11T06:03:41.019Z,1.40
2018-06-11T06:06:09.603Z,1.60
2018-06-11T06:08:38.309Z,1.70
2018-06-11T06:11:06.886Z,1.30
2018-06-11T06:13:35.430Z,1.20
2018-06-11T06:16:04.139Z,1.10
2018-06-11T06:18:32.719Z,0.90
2018-06-11T06:21:01.304Z,1.50
2018-06-11T06:23:30.093Z,1.33
2018-06-11T06:25:58.657Z,1.03
2018-06-11T06:28:27.258Z,1.50
2018-06-11T06:30:55.840Z,1.43
2018-06-11T06:33:24.451Z,1.43
2018-06-11T06:35:53.126Z,1.30
2018-06-11T06:38:23.229Z,1.07
2018-06-11T06:40:51.841Z,1.33
2018-06-11T06:43:20.498Z,1.27
2018-06-11T06:45:49.098Z,1.23
2018-06-11T06:48:17.711Z,1.00
2018-06-11T06:50:46.452Z,1.43
2018-06-11T06:53:15.618Z,1.10
2018-06-11T06:55:44.332Z,1.10
2018-06-11T06:58:12.913Z,1.03
2018-06-11T07:00:42.075Z,1.50
2018-06-11T07:03:10.611Z,1.43
2018-06-11T07:05:39.278Z,0.97
2018-06-11T07:08:07.972Z,1.20
2018-06-11T07:10:36.655Z,1.27
2018-06-11T07:13:05.423Z,1.20
2018-06-11T07:15:34.122Z,1.27
2018-06-11T07:18:02.735Z,1.03
2018-06-11T07:20:31.399Z,1.40
2018-06-11T07:22:59.969Z,1.80
2018-06-11T07:25:28.552Z,1.20
2018-06-11T07:27:57.294Z,1.40
2018-06-11T07:30:25.878Z,1.47
2018-06-11T07:32:54.453Z,1.20
2018-06-11T07:35:23.754Z,1.40
2018-06-11T07:37:52.403Z,1.13
2018-06-11T07:40:21.081Z,1.47
2018-06-11T07:42:49.675Z,1.10
2018-06-11T07:45:18.338Z,1.07
2018-06-11T07:47:47.808Z,1.27
2018-06-11T07:50:17.255Z,1.27
2018-06-11T07:52:45.838Z,1.40
2018-06-11T07:55:14.390Z,1.27
2018-06-11T07:57:43.075Z,1.43
2018-06-11T08:00:11.630Z,1.20
2018-06-11T08:02:40.306Z,1.27
2018-06-11T08:05:09.992Z,1.60
2018-06-11T08:07:38.583Z,1.30
2018-06-11T08:10:07.245Z,1.40
2018-06-11T08:12:35.762Z,1.13
2018-06-11T08:15:04.514Z,1.10
2018-06-11T08:17:33.175Z,0.97
2018-06-11T08:20:01.827Z,1.10
2018-06-11T08:22:30.421Z,1.10
2018-06-11T08:24:59.152Z,1.97
2018-06-11T08:27:27.795Z,0.90
2018-06-11T08:29:56.367Z,1.20
2018-06-11T08:32:24.935Z,1.40
2018-06-11T08:34:53.447Z,1.40
2018-06-11T08:37:22.069Z,1.00
2018-06-11T08:39:50.670Z,1.00
2018-06-11T08:42:19.288Z,1.10
2018-06-11T08:44:47.859Z,1.30
2018-06-11T08:47:16.503Z,1.50
2018-06-11T08:49:45.130Z,1.10
2018-06-11T08:52:14.319Z,1.00
2018-06-11T08:54:42.965Z,1.03
2018-06-11T08:57:11.650Z,1.30
2018-06-11T08:59:40.290Z,1.03
2018-06-11T09:02:08.921Z,1.23
2018-06-11T09:04:37.562Z,1.23
2018-06-11T09:07:06.323Z,1.30
2018-06-11T09:09:35.077Z,1.13
2018-06-11T09:12:03.698Z,1.40
2018-06-11T09:14:32.451Z,1.30
2018-06-11T09:17:01.033Z,1.20
2018-06-11T09:19:29.717Z,1.43
2018-06-11T09:21:58.404Z,1.63
2018-06-11T09:24:27.087Z,0.97
2018-06-11T09:26:55.658Z,1.33
2018-06-11T09:29:24.263Z,1.60
2018-06-11T09:31:52.837Z,1.47
2018-06-11T09:34:21.436Z,1.47
2018-06-11T09:36:50.054Z,1.50
2018-06-11T09:39:18.692Z,1.13
2018-06-11T09:41:47.372Z,1.30
2018-06-11T09:44:16.912Z,1.30
2018-06-11T09:46:45.504Z,1.87
2018-06-11T09:49:14.250Z,1.10
2018-06-11T09:51:42.803Z,1.40
2018-06-11T09:54:11.327Z,1.20
2018-06-11T09:56:39.998Z,1.13
2018-06-11T09:59:08.680Z,1.70
2018-06-11T10:01:38.188Z,1.30
2018-06-11T10:04:06.801Z,1.47
2018-06-11T10:06:35.413Z,1.73
2018-06-11T10:09:04.470Z,1.20
2018-06-11T10:11:33.232Z,1.30
2018-06-11T10:14:02.841Z,1.67
2018-06-11T10:16:31.525Z,1.10
2018-06-11T10:19:00.282Z,1.17
2018-06-11T10:21:28.807Z,1.00
2018-06-11T10:23:57.382Z,0.70
2018-06-11T10:26:26.038Z,1.60
2018-06-11T10:28:54.696Z,1.33
2018-06-11T10:31:23.242Z,1.13
2018-06-11T10:33:51.866Z,0.63
2018-06-11T10:36:20.481Z,1.00
2018-06-11T10:38:48.992Z,1.10
2018-06-11T10:41:18.218Z,1.20
2018-06-11T10:43:46.836Z,1.20
2018-06-11T10:46:15.354Z,1.47
2018-06-11T10:48:43.862Z,1.37
2018-06-11T10:51:12.406Z,1.20
2018-06-11T10:53:40.985Z,1.23
2018-06-11T10:56:09.567Z,1.47
2018-06-11T10:58:38.793Z,1.10
2018-06-11T11:01:07.656Z,1.73
2018-06-11T11:03:39.153Z,1.00
2018-06-11T11:06:08.644Z,1.20
2018-06-11T11:08:37.300Z,1.23
2018-06-11T11:11:06.041Z,1.73
2018-06-11T11:13:34.664Z,1.20
2018-06-11T11:16:04.272Z,1.13
2018-06-11T11:18:32.778Z,1.40
2018-06-11T11:21:01.540Z,1.90
2018-06-11T11:23:30.231Z,1.40
2018-06-11T11:25:59.526Z,1.17
2018-06-11T11:28:28.106Z,1.30
2018-06-11T11:30:56.793Z,1.47
2018-06-11T11:33:25.430Z,0.90
2018-06-11T11:35:53.926Z,1.03
2018-06-11T11:38:22.541Z,1.10
2018-06-11T11:40:51.650Z,1.60
2018-06-11T11:43:21.039Z,1.10
2018-06-11T11:45:49.623Z,1.17
2018-06-11T11:48:18.219Z,1.13
2018-06-11T11:50:46.890Z,1.07
2018-06-11T11:53:16.394Z,1.03
2018-06-11T11:55:45.080Z,0.90
2018-06-11T11:58:13.663Z,1.50
2018-06-11T12:00:42.256Z,1.30
2018-06-11T12:03:10.850Z,1.53
2018-06-11T12:05:39.513Z,1.10
2018-06-11T12:08:08.078Z,0.83
2018-06-11T12:10:36.783Z,0.90
2018-06-11T12:13:05.349Z,1.00
2018-06-11T12:15:34.152Z,0.97
2018-06-11T12:18:02.838Z,0.87
2018-06-11T12:20:31.409Z,1.10
2018-06-11T12:23:00.100Z,0.90
2018-06-11T12:25:29.331Z,1.20
2018-06-11T12:27:57.911Z,1.67
2018-06-11T12:30:26.470Z,1.33
2018-06-11T12:32:55.153Z,1.13
2018-06-11T12:35:23.791Z,0.80
2018-06-11T12:37:53.598Z,1.20
2018-06-11T12:40:22.339Z,1.40
2018-06-11T12:42:50.853Z,1.80
2018-06-11T12:45:19.511Z,0.77
2018-06-11T12:47:48.502Z,1.00
2018-06-11T12:50:18.330Z,1.30
2018-06-11T12:52:47.056Z,1.03
2018-06-11T12:55:15.677Z,1.63
2018-06-11T12:57:44.362Z,1.23
2018-06-11T13:00:12.890Z,1.00
2018-06-11T13:02:41.486Z,0.80
2018-06-11T13:05:10.015Z,0.93
2018-06-11T13:07:38.821Z,0.97
2018-06-11T13:10:07.484Z,1.40
2018-06-11T13:12:36.270Z,0.70
2018-06-11T13:15:05.469Z,0.80
2018-06-11T13:17:34.150Z,1.00
2018-06-11T13:20:02.770Z,1.07
2018-06-11T13:22:31.368Z,1.00
2018-06-11T13:24:59.938Z,1.30
2018-06-11T13:27:29.095Z,0.93
2018-06-11T13:29:57.782Z,1.20
2018-06-11T13:32:26.442Z,1.07
2018-06-11T13:34:54.986Z,0.93
2018-06-11T13:37:24.395Z,1.20
2018-06-11T13:39:52.960Z,1.20
2018-06-11T13:42:21.564Z,1.10
2018-06-11T13:44:50.306Z,1.27
2018-06-11T13:47:18.906Z,1.20
2018-06-11T13:49:47.570Z,1.70
2018-06-11T13:52:16.256Z,1.07
2018-06-11T13:54:44.862Z,0.70
2018-06-11T13:57:13.421Z,1.10
2018-06-11T13:59:41.960Z,1.00
2018-06-11T14:02:10.588Z,1.07
2018-06-11T14:04:40.405Z,0.90
2018-06-11T14:07:09.743Z,1.17
2018-06-11T14:09:38.298Z,0.73
2018-06-11T14:12:06.967Z,1.40
2018-06-11T14:14:35.562Z,1.43
2018-06-11T14:17:04.382Z,1.10
2018-06-11T14:19:33.229Z,1.33
2018-06-11T14:22:02.063Z,1.00
2018-06-11T14:24:30.701Z,1.07
2018-06-11T14:26:59.322Z,1.00
2018-06-11T14:29:27.868Z,1.00
2018-06-11T14:31:56.405Z,0.77
2018-06-11T14:34:24.931Z,0.80
2018-06-11T14:36:53.538Z,1.00
2018-06-11T14:39:22.164Z,1.20
2018-06-11T14:41:50.783Z,1.20
2018-06-11T14:44:19.465Z,0.97
2018-06-11T14:46:48.080Z,1.00
2018-06-11T14:49:16.938Z,0.80
2018-06-11T14:51:45.427Z,1.10
2018-06-11T14:54:14.157Z,0.90
2018-06-11T14:56:42.719Z,4.40
2018-06-11T14:59:11.375Z,3.00
2018-06-11T15:01:39.895Z,1.00
2018-06-11T15:04:08.454Z,1.10
2018-06-11T15:06:37.911Z,1.03
2018-06-11T15:09:07.896Z,1.23
2018-06-11T15:11:36.632Z,1.20
2018-06-11T15:14:05.429Z,1.00
2018-06-11T15:16:34.075Z,1.20
2018-06-11T15:19:03.305Z,1.23
2018-06-11T15:21:31.898Z,1.07
2018-06-11T15:24:00.501Z,1.00
2018-06-11T15:26:29.237Z,1.17
2018-06-11T15:28:57.851Z,0.90
2018-06-11T15:31:27.250Z,0.97
2018-06-11T15:33:56.794Z,1.27
2018-06-11T15:36:25.439Z,1.27
2018-06-11T15:38:54.125Z,1.00
2018-06-11T15:41:22.812Z,1.00
2018-06-11T15:43:51.427Z,1.23
2018-06-11T15:46:20.022Z,0.90
2018-06-11T15:48:48.770Z,1.00
2018-06-11T15:51:17.334Z,0.83
2018-06-11T15:53:46.516Z,1.07
2018-06-11T15:56:15.632Z,1.10
2018-06-11T15:58:44.224Z,0.90
2018-06-11T16:01:12.857Z,1.10
2018-06-11T16:03:41.487Z,1.20
2018-06-11T16:06:10.338Z,0.80
2018-06-11T16:08:38.945Z,1.20
2018-06-11T16:11:08.018Z,1.40
2018-06-11T16:13:36.569Z,1.37
2018-06-11T16:16:05.437Z,1.50
2018-06-11T16:18:35.381Z,1.10
2018-06-11T16:21:04.669Z,1.20
2018-06-11T16:23:33.219Z,1.07
2018-06-11T16:26:01.895Z,1.00
2018-06-11T16:28:30.643Z,1.20
2018-06-11T16:31:00.049Z,1.10
2018-06-11T16:33:28.722Z,1.00
2018-06-11T16:35:58.905Z,1.40
2018-06-11T16:38:27.590Z,1.20
2018-06-11T16:40:56.195Z,1.07
2018-06-11T16:43:24.805Z,1.23
2018-06-11T16:45:53.440Z,1.40
2018-06-11T16:48:22.328Z,1.13
2018-06-11T16:50:51.117Z,8.27
2018-06-11T16:53:19.802Z,3.03
2018-06-11T16:55:48.389Z,1.30
2018-06-11T16:58:17.008Z,1.33
2018-06-11T17:00:45.654Z,1.30
2018-06-11T17:03:14.282Z,1.23
2018-06-11T17:05:43.636Z,1.50
2018-06-11T17:08:12.323Z,1.40
2018-06-11T17:10:40.915Z,1.80
2018-06-11T17:13:09.545Z,1.50
2018-06-11T17:15:38.178Z,1.30
2018-06-11T17:18:06.807Z,1.57
2018-06-11T17:20:35.383Z,1.20
2018-06-11T17:23:04.639Z,1.50
2018-06-11T17:25:33.709Z,1.20
2018-06-11T17:28:02.274Z,1.03
2018-06-11T17:30:30.899Z,1.40
2018-06-11T17:32:59.527Z,1.50
2018-06-11T17:35:28.168Z,1.30
2018-06-11T17:37:56.818Z,1.40
2018-06-11T17:40:25.426Z,1.17
2018-06-11T17:42:53.963Z,1.60
2018-06-11T17:45:22.602Z,1.73
2018-06-11T17:47:51.149Z,2.10
2018-06-11T17:50:21.121Z,1.10
2018-06-11T17:52:49.993Z,1.50
2018-06-11T17:55:18.612Z,0.90
2018-06-11T17:57:47.261Z,1.07
2018-06-11T18:00:15.758Z,0.90
2018-06-11T18:02:44.407Z,0.90
2018-06-11T18:05:12.931Z,0.90
2018-06-11T18:07:41.526Z,0.90
2018-06-11T18:10:10.102Z,0.90
2018-06-11T18:12:38.664Z,0.90
2018-06-11T18:15:07.233Z,1.20
2018-06-11T18:17:35.715Z,0.90
2018-06-11T18:20:05.070Z,1.00
2018-06-11T18:22:33.614Z,0.80
2018-06-11T18:25:02.288Z,0.80
2018-06-11T18:27:30.885Z,0.90
2018-06-11T18:29:59.448Z,0.77
2018-06-11T18:32:28.053Z,0.80
2018-06-11T18:34:57.184Z,0.90
2018-06-11T18:37:25.761Z,0.90
2018-06-11T18:39:55.256Z,0.80
2018-06-11T18:42:23.868Z,0.83
2018-06-11T18:44:52.482Z,0.80
2018-06-11T18:47:20.991Z,0.90
2018-06-11T18:49:49.610Z,0.87
2018-06-11T18:52:18.178Z,0.90
2018-06-11T18:54:46.806Z,0.90
2018-06-11T18:57:15.503Z,1.00
2018-06-11T18:59:44.798Z,0.90
2018-06-11T19:02:13.585Z,0.80
2018-06-11T19:04:42.806Z,1.10
2018-06-11T19:07:11.468Z,1.00
2018-06-11T19:09:40.114Z,1.17
2018-06-11T19:12:08.791Z,1.20
2018-06-11T19:14:38.445Z,0.97
2018-06-11T19:17:08.255Z,1.13
2018-06-11T19:19:36.945Z,1.03
2018-06-11T19:22:05.780Z,1.07
2018-06-11T19:24:35.446Z,1.00
2018-06-11T19:27:04.123Z,1.00
2018-06-11T19:29:32.808Z,1.07
2018-06-11T19:32:01.447Z,1.10
2018-06-11T19:34:30.102Z,0.80
2018-06-11T19:36:58.800Z,1.10
2018-06-11T19:39:27.561Z,0.93
2018-06-11T19:41:56.197Z,1.00
2018-06-11T19:44:24.748Z,0.97
2018-06-11T19:46:54.152Z,1.00
2018-06-11T19:49:23.010Z,1.20
2018-06-11T19:51:51.675Z,0.93
2018-06-11T19:54:20.354Z,1.47
2018-06-11T19:56:49.064Z,1.40
2018-06-11T19:59:17.815Z,1.27
2018-06-11T20:01:46.493Z,1.20
2018-06-11T20:04:15.127Z,1.17
2018-06-11T20:06:43.704Z,2.83
2018-06-11T20:09:12.199Z,3.47
2018-06-11T20:11:40.820Z,1.40
2018-06-11T20:14:10.373Z,1.10
2018-06-11T20:16:38.959Z,1.30
2018-06-11T20:19:07.641Z,1.40
2018-06-11T20:21:36.308Z,1.37
2018-06-11T20:24:05.011Z,1.40
2018-06-11T20:26:34.219Z,1.20
2018-06-11T20:29:03.098Z,1.53
2018-06-11T20:31:31.749Z,1.00
2018-06-11T20:34:00.571Z,1.60
2018-06-11T20:36:29.257Z,1.20
2018-06-11T20:38:57.839Z,1.63
2018-06-11T20:41:26.518Z,1.20
2018-06-11T20:43:55.211Z,1.40
2018-06-11T20:46:23.748Z,1.50
2018-06-11T20:48:52.376Z,1.53
2018-06-11T20:51:20.991Z,1.30
2018-06-11T20:53:49.693Z,1.40
2018-06-11T20:56:18.354Z,1.70
2018-06-11T20:58:47.023Z,1.13
2018-06-11T21:01:15.704Z,1.43
2018-06-11T21:03:44.281Z,1.57
2018-06-11T21:06:12.790Z,1.27
2018-06-11T21:08:41.386Z,1.30
2018-06-11T21:11:10.033Z,1.60
2018-06-11T21:13:38.716Z,1.90
2018-06-11T21:16:07.746Z,1.60
2018-06-11T21:18:36.808Z,1.40
2018-06-11T21:21:05.540Z,1.30
2018-06-11T21:23:34.114Z,1.37
2018-06-11T21:26:02.757Z,1.60
2018-06-11T21:28:31.267Z,1.50
2018-06-11T21:30:59.771Z,1.37
2018-06-11T21:33:28.403Z,1.47
2018-06-11T21:35:57.088Z,1.43
2018-06-11T21:38:25.736Z,1.30
2018-06-11T21:40:54.279Z,1.20
2018-06-11T21:43:22.940Z,1.40
2018-06-11T21:45:51.467Z,1.40
2018-06-11T21:48:20.054Z,1.43
2018-06-11T21:50:48.645Z,1.43
2018-06-11T21:53:17.271Z,1.43
2018-06-11T21:55:45.822Z,1.30
2018-06-11T21:58:14.336Z,1.50
2018-06-11T22:00:42.990Z,1.67
2018-06-11T22:03:11.503Z,1.70
2018-06-11T22:05:40.021Z,1.70
2018-06-11T22:08:08.611Z,1.60
2018-06-11T22:10:37.247Z,1.70
2018-06-11T22:13:06.444Z,1.70
2018-06-11T22:15:35.130Z,1.77
2018-06-11T22:18:03.898Z,1.70
2018-06-11T22:20:32.604Z,1.47
2018-06-11T22:23:01.289Z,1.90
2018-06-11T22:25:29.798Z,1.77
2018-06-11T22:27:58.378Z,2.33
2018-06-11T22:30:27.177Z,1.87
2018-06-11T22:32:55.671Z,2.17
2018-06-11T22:35:25.374Z,2.60
2018-06-11T22:37:53.956Z,2.40
2018-06-11T22:40:22.587Z,2.10
2018-06-11T22:42:51.741Z,1.87
2018-06-11T22:45:20.378Z,1.83
2018-06-11T22:47:48.866Z,2.40
2018-06-11T22:50:17.544Z,2.00
2018-06-11T22:52:46.842Z,2.37
2018-06-11T22:55:15.337Z,2.10
2018-06-11T22:57:43.907Z,2.30
2018-06-11T23:00:13.411Z,2.37
2018-06-11T23:02:41.906Z,2.30
2018-06-11T23:05:10.596Z,2.20
2018-06-11T23:07:39.264Z,2.03
2018-06-11T23:10:07.790Z,2.17
2018-06-11T23:12:36.427Z,2.20
2018-06-11T23:15:05.019Z,1.90
2018-06-11T23:17:33.703Z,2.03
2018-06-11T23:20:02.268Z,2.20
2018-06-11T23:22:30.754Z,2.43
2018-06-11T23:24:59.341Z,2.70
2018-06-11T23:27:28.026Z,2.10
2018-06-11T23:29:56.631Z,2.83
2018-06-11T23:32:25.347Z,2.37
2018-06-11T23:34:54.492Z,2.37
2018-06-11T23:37:23.075Z,2.50
2018-06-11T23:39:51.657Z,2.80
2018-06-11T23:42:20.178Z,2.27
2018-06-11T23:44:48.822Z,2.13
2018-06-11T23:47:17.314Z,2.03
2018-06-11T23:49:45.988Z,2.80
2018-06-11T23:52:14.751Z,3.80
2018-06-11T23:54:43.461Z,3.40
2018-06-11T23:57:12.082Z,4.17
2018-06-11T23:59:40.730Z,3.90
